Time;durP1;ratioP1;P1;durP2;ratioP2;P2;SDS_P1;SDS_P2;PMS_P1;PMS_P2;Temp;Humidity;BMP_temperature;BMP_pressure;BME280_temperature;BME280_humidity;BME280_pressure;Samples;Min_cycle;Max_cycle;Signal;HPM_P1;HPM_P2
2020/12/09 00:01:30;;;;;;;21.63;12.77;;;;;;;2.98;100.00;100033.50;5069401;28;20107;-66
2020/12/09 00:03:57;;;;;;;20.35;12.55;;;;;;;3.14;100.00;100070.47;5051329;28;20028;-67
2020/12/09 00:06:33;;;;;;;17.73;12.15;;;;;;;2.95;100.00;100032.81;5069299;28;20359;-67
2020/12/09 00:09:00;;;;;;;17.92;12.05;;;;;;;2.95;100.00;100035.47;5069524;28;20462;-67
2020/12/09 00:11:25;;;;;;;20.23;13.35;;;;;;;3.07;100.00;100061.22;5069590;28;20416;-67
2020/12/09 00:13:51;;;;;;;17.60;12.38;;;;;;;3.01;100.00;100035.97;5069404;28;20046;-67
2020/12/09 00:16:17;;;;;;;19.70;12.43;;;;;;;3.09;100.00;100052.22;5069345;28;20081;-67
2020/12/09 00:18:44;;;;;;;18.92;12.35;;;;;;;3.08;100.00;100058.47;5069106;28;20024;-66
2020/12/09 00:21:21;;;;;;;18.33;11.90;;;;;;;3.03;100.00;100054.41;5069169;28;20021;-67
2020/12/09 00:23:48;;;;;;;17.45;11.13;;;;;;;2.87;100.00;100016.56;5068853;28;20514;-67
2020/12/09 00:26:21;;;;;;;16.58;11.50;;;;;;;3.03;100.00;100052.59;5069081;28;20036;-67
2020/12/09 00:28:47;;;;;;;17.95;12.07;;;;;;;3.06;100.00;100048.94;5069022;28;20027;-67
2020/12/09 00:31:17;;;;;;;18.50;11.73;;;;;;;3.00;100.00;100033.41;5068798;28;20378;-67
2020/12/09 00:33:44;;;;;;;16.70;11.68;;;;;;;3.09;100.00;100051.38;5069448;28;20107;-67
2020/12/09 00:36:13;;;;;;;20.70;12.00;;;;;;;3.10;100.00;100069.84;5069117;28;20055;-67
2020/12/09 00:38:39;;;;;;;17.58;11.18;;;;;;;3.05;100.00;100061.31;5069310;28;20041;-67
2020/12/09 00:41:05;;;;;;;16.77;11.68;;;;;;;3.02;100.00;100050.03;5051089;28;20109;-67
2020/12/09 00:43:30;;;;;;;16.85;10.32;;;;;;;2.84;100.00;100014.09;5067999;28;20107;-67
2020/12/09 00:45:55;;;;;;;16.98;11.35;;;;;;;3.05;100.00;100049.84;5069199;28;20028;-67
2020/12/09 00:48:22;;;;;;;15.73;10.70;;;;;;;3.05;100.00;100047.19;5068826;28;20031;-67
2020/12/09 00:50:48;;;;;;;19.75;12.50;;;;;;;2.97;100.00;100039.72;5069036;28;20039;-68
2020/12/09 00:53:13;;;;;;;18.67;11.98;;;;;;;2.96;100.00;100034.53;5068859;28;20025;-67
2020/12/09 00:55:39;;;;;;;21.50;12.52;;;;;;;2.99;100.00;100039.63;5069417;28;20519;-67
2020/12/09 00:58:04;;;;;;;18.63;12.40;;;;;;;2.97;100.00;100033.59;5068636;28;20103;-67
2020/12/09 01:00:29;;;;;;;15.75;10.85;;;;;;;3.00;99.76;100041.34;5068759;28;20063;-68
2020/12/09 01:02:55;;;;;;;19.20;11.48;;;;;;;2.98;99.99;100032.63;5068916;28;20020;-67
2020/12/09 01:05:20;;;;;;;17.35;12.35;;;;;;;2.94;99.65;100024.03;5068709;28;20025;-67
2020/12/09 01:07:46;;;;;;;20.15;11.55;;;;;;;2.92;99.94;100022.41;5068724;28;20389;-66
2020/12/09 01:10:11;;;;;;;18.50;12.15;;;;;;;2.85;99.89;100018.44;5068946;28;20036;-66
2020/12/09 01:12:41;;;;;;;19.02;12.80;;;;;;;2.82;99.88;100019.50;5068964;28;20370;-67
2020/12/09 01:15:08;;;;;;;17.00;11.75;;;;;;;2.75;100.00;100012.00;5068499;28;20020;-67
2020/12/09 01:17:33;;;;;;;18.38;12.07;;;;;;;2.75;100.00;100017.31;5068651;28;20036;-67
2020/12/09 01:19:59;;;;;;;19.67;11.73;;;;;;;2.78;100.00;100017.13;5068770;28;20025;-67
2020/12/09 01:22:24;;;;;;;19.30;11.93;;;;;;;2.74;100.00;100016.44;5068331;28;20036;-67
2020/12/09 01:24:50;;;;;;;17.52;11.48;;;;;;;2.54;100.00;99978.91;5050375;28;20478;-67
2020/12/09 01:27:15;;;;;;;19.35;12.57;;;;;;;2.76;100.00;100011.06;5068154;28;20025;-66
2020/12/09 01:29:40;;;;;;;21.98;12.38;;;;;;;2.59;100.00;99985.63;5050712;28;20067;-67
2020/12/09 01:32:06;;;;;;;16.67;11.35;;;;;;;2.74;100.00;100016.44;5068279;28;20039;-66
2020/12/09 01:34:31;;;;;;;18.00;12.10;;;;;;;2.72;100.00;100028.06;5068458;28;20016;-67
2020/12/09 01:36:59;;;;;;;17.90;12.48;;;;;;;2.62;100.00;100009.25;5068304;28;20033;-67
2020/12/09 01:39:25;;;;;;;17.75;12.43;;;;;;;2.61;100.00;100012.84;5068450;28;20377;-67
2020/12/09 01:41:51;;;;;;;18.10;11.30;;;;;;;2.72;100.00;100025.44;5068616;28;20024;-67
2020/12/09 01:44:18;;;;;;;17.25;11.55;;;;;;;2.75;100.00;100020.81;5068259;28;20035;-67
2020/12/09 01:46:43;;;;;;;19.52;11.93;;;;;;;2.77;100.00;100018.06;5068682;28;20103;-67
2020/12/09 01:49:10;;;;;;;18.58;11.88;;;;;;;2.77;99.92;100032.16;5068103;28;20027;-67
2020/12/09 01:51:35;;;;;;;19.20;12.45;;;;;;;2.53;99.67;99980.69;5068428;28;20032;-67
2020/12/09 01:54:01;;;;;;;17.58;12.18;;;;;;;2.76;99.97;100014.56;5069487;28;20024;-67
2020/12/09 01:56:27;;;;;;;18.17;12.10;;;;;;;2.68;100.00;100005.38;5071675;28;20497;-67
2020/12/09 01:58:53;;;;;;;19.58;12.25;;;;;;;2.56;99.82;99987.59;5071889;28;20030;-68
2020/12/09 02:01:20;;;;;;;22.98;12.70;;;;;;;2.67;100.00;100011.63;5071750;28;20404;-68
2020/12/09 02:03:46;;;;;;;19.13;12.60;;;;;;;2.64;100.00;100004.72;5071323;28;20507;-67
2020/12/09 02:06:13;;;;;;;17.58;11.55;;;;;;;2.64;99.80;100006.53;5071354;28;20052;-67
2020/12/09 02:08:39;;;;;;;18.65;12.82;;;;;;;2.59;100.00;99998.00;5071283;28;20402;-67
2020/12/09 02:11:04;;;;;;;18.80;12.10;;;;;;;2.59;99.96;100001.50;5071399;28;20383;-67
2020/12/09 02:13:31;;;;;;;17.63;12.82;;;;;;;2.38;100.00;99973.66;5053350;28;20547;-67
2020/12/09 02:16:00;;;;;;;18.45;12.10;;;;;;;2.56;100.00;100020.22;5071752;28;20075;-67
2020/12/09 02:18:27;;;;;;;21.20;11.82;;;;;;;2.51;100.00;100002.91;5071422;28;20062;-67
2020/12/09 02:20:52;;;;;;;18.45;11.98;;;;;;;2.57;100.00;100013.13;5068985;28;20110;-67
2020/12/09 02:23:18;;;;;;;18.63;11.95;;;;;;;2.57;100.00;100005.19;5071212;28;20038;-67
2020/12/09 02:25:45;;;;;;;21.02;12.25;;;;;;;2.38;100.00;99969.25;5071177;28;20078;-67
2020/12/09 02:28:11;;;;;;;18.92;11.68;;;;;;;2.60;100.00;100002.34;5071318;28;20481;-67
2020/12/09 02:30:36;;;;;;;18.13;11.27;;;;;;;2.58;99.97;99993.66;5071505;28;20041;-67
2020/12/09 02:33:02;;;;;;;18.25;12.65;;;;;;;2.36;99.77;99965.00;5071184;28;20031;-67
2020/12/09 02:35:28;;;;;;;18.40;12.18;;;;;;;2.59;100.00;100005.94;5071089;28;20036;-67
2020/12/09 02:37:53;;;;;;;19.33;12.40;;;;;;;2.49;99.74;99988.91;5053132;28;20493;-67
2020/12/09 02:40:22;;;;;;;18.52;11.88;;;;;;;2.56;99.55;100004.34;5071099;28;20032;-67
2020/12/09 02:42:48;;;;;;;18.70;11.93;;;;;;;2.57;99.52;99999.91;5071188;28;20032;-67
2020/12/09 02:45:15;;;;;;;20.88;12.10;;;;;;;2.55;99.97;100004.44;5071322;28;20028;-67
2020/12/09 02:47:40;;;;;;;22.13;12.38;;;;;;;2.55;99.98;99985.91;5071162;28;20390;-67
2020/12/09 02:50:06;;;;;;;20.70;13.02;;;;;;;2.51;99.43;99979.94;5070771;28;20028;-67
2020/12/09 02:52:32;;;;;;;21.10;12.07;;;;;;;2.54;99.41;99997.44;5070964;28;20487;-67
2020/12/09 02:54:57;;;;;;;19.00;12.07;;;;;;;2.52;99.79;99986.94;5070638;28;20190;-67
2020/12/09 02:57:23;;;;;;;18.95;12.40;;;;;;;2.55;99.52;99993.84;5052973;28;20028;-68
2020/12/09 02:59:48;;;;;;;18.33;11.70;;;;;;;2.57;99.65;99989.31;5070882;28;20104;-68
2020/12/09 03:02:14;;;;;;;18.35;12.35;;;;;;;2.59;99.32;99982.97;5070820;28;20070;-67
2020/12/09 03:04:39;;;;;;;18.55;11.90;;;;;;;2.56;99.39;99992.88;5070603;28;20031;-67
2020/12/09 03:07:05;;;;;;;19.98;12.35;;;;;;;2.60;98.92;99994.41;5069911;28;20060;-67
2020/12/09 03:09:30;;;;;;;18.48;11.88;;;;;;;2.35;99.13;99955.34;5070462;28;20117;-67
2020/12/09 03:11:56;;;;;;;23.55;12.73;;;;;;;2.52;99.25;99976.34;5070494;28;20033;-67
2020/12/09 03:14:21;;;;;;;19.25;11.75;;;;;;;2.42;99.63;99971.69;5070651;28;20020;-68
2020/12/09 03:16:46;;;;;;;17.85;12.00;;;;;;;2.43;99.28;99967.16;5070614;28;20032;-67
2020/12/09 03:19:12;;;;;;;19.15;11.93;;;;;;;2.41;99.55;99967.38;5052234;28;20021;-67
2020/12/09 03:21:42;;;;;;;19.92;12.13;;;;;;;2.35;99.71;99952.69;5070452;28;20056;-67
2020/12/09 03:24:08;;;;;;;20.38;12.00;;;;;;;2.47;99.90;99973.13;5068010;28;20028;-67
2020/12/09 03:26:34;;;;;;;18.10;11.75;;;;;;;2.20;100.00;99938.59;5070142;28;20115;-68
2020/12/09 03:28:59;;;;;;;21.48;12.48;;;;;;;2.36;99.91;99957.88;5070218;28;20024;-68
2020/12/09 03:31:25;;;;;;;21.38;12.43;;;;;;;2.27;100.00;99944.38;5070114;28;20135;-68
2020/12/09 03:33:50;;;;;;;19.42;12.80;;;;;;;2.19;99.55;99936.03;5070154;28;20022;-67
2020/12/09 03:36:17;;;;;;;18.30;12.25;;;;;;;2.35;99.47;99955.34;5070060;28;20135;-67
2020/12/09 03:38:42;;;;;;;19.23;13.23;;;;;;;2.51;99.39;99984.38;5069748;28;20029;-67
2020/12/09 03:41:08;;;;;;;17.55;12.02;;;;;;;2.47;99.81;99988.13;5069725;28;20561;-67
2020/12/09 03:43:34;;;;;;;18.77;11.85;;;;;;;2.44;99.42;99983.88;5069941;28;20024;-68
2020/12/09 03:45:59;;;;;;;20.13;12.52;;;;;;;2.46;99.47;99979.38;5069875;28;20432;-68
2020/12/09 03:48:24;;;;;;;20.02;12.27;;;;;;;2.18;99.25;99935.19;5069793;28;20021;-68
2020/12/09 03:50:50;;;;;;;21.80;12.93;;;;;;;2.46;99.44;99978.50;5070116;28;20067;-67
2020/12/09 03:53:15;;;;;;;19.00;12.32;;;;;;;2.38;99.63;99980.78;5068403;28;20024;-68
2020/12/09 03:55:41;;;;;;;20.25;13.30;;;;;;;2.28;99.47;99956.66;5051829;28;20035;-68
2020/12/09 03:58:07;;;;;;;19.95;11.85;;;;;;;2.43;99.81;99996.25;5069756;28;20386;-67
2020/12/09 04:00:32;;;;;;;20.60;12.40;;;;;;;2.38;99.50;99978.13;5069489;28;20553;-68
2020/12/09 04:02:58;;;;;;;18.95;12.60;;;;;;;2.17;100.00;99948.50;5051581;28;20032;-67
2020/12/09 04:05:23;;;;;;;21.77;12.80;;;;;;;2.35;99.74;99984.44;5069377;28;20082;-67
2020/12/09 04:07:49;;;;;;;20.55;13.38;;;;;;;2.15;99.98;99945.09;5051761;28;20016;-67
2020/12/09 04:10:15;;;;;;;16.10;11.63;;;;;;;2.34;100.00;99965.09;5069359;28;20024;-67
2020/12/09 04:12:40;;;;;;;19.70;12.52;;;;;;;2.39;99.81;99970.94;5068816;28;20035;-68
2020/12/09 04:15:06;;;;;;;20.23;13.57;;;;;;;2.32;99.88;99969.59;5069161;28;20024;-68
2020/12/09 04:17:31;;;;;;;22.33;13.35;;;;;;;2.37;99.77;99974.63;5068683;28;20471;-67
2020/12/09 04:19:57;;;;;;;20.25;12.02;;;;;;;2.38;100.00;99963.94;5069120;28;20028;-68
2020/12/09 04:22:23;;;;;;;18.77;12.15;;;;;;;2.32;99.94;99955.50;5068589;28;20470;-67
2020/12/09 04:24:48;;;;;;;19.33;13.63;;;;;;;2.38;100.00;99965.72;5068886;28;20023;-67
2020/12/09 04:27:14;;;;;;;22.80;12.60;;;;;;;2.11;100.00;99917.13;5068715;28;20032;-68
2020/12/09 04:29:39;;;;;;;21.88;13.88;;;;;;;2.33;99.98;99952.78;5068569;28;20078;-67
2020/12/09 04:32:05;;;;;;;19.27;12.65;;;;;;;2.36;100.00;99960.53;5050586;28;20150;-67
2020/12/09 04:34:32;;;;;;;22.63;13.27;;;;;;;2.33;100.00;99967.81;5068829;28;20020;-67
2020/12/09 04:36:58;;;;;;;20.08;12.65;;;;;;;2.14;100.00;99949.56;5068425;28;20055;-67
2020/12/09 04:39:23;;;;;;;23.08;13.07;;;;;;;2.28;100.00;99968.09;5069217;28;20354;-68
2020/12/09 04:41:49;;;;;;;22.10;13.70;;;;;;;2.32;100.00;99984.63;5067541;28;20036;-67
2020/12/09 04:44:15;;;;;;;21.52;12.70;;;;;;;2.34;100.00;99983.59;5068303;28;20139;-67
2020/12/09 04:46:51;;;;;;;20.60;13.45;;;;;;;2.30;100.00;99981.22;5068228;28;20023;-67
2020/12/09 04:49:23;;;;;;;20.45;12.45;;;;;;;2.32;100.00;99977.53;5068210;28;20042;-67
2020/12/09 04:52:14;;;;;;;22.38;13.02;;;;;;;2.32;100.00;99974.03;5067249;28;20028;-68
2020/12/09 04:54:42;;;;;;;19.80;13.02;;;;;;;2.19;100.00;99960.69;5066848;28;20036;-67
2020/12/09 04:57:11;;;;;;;21.05;13.27;;;;;;;2.31;99.95;99973.19;5066997;28;20456;-68
2020/12/09 04:59:40;;;;;;;23.63;13.15;;;;;;;2.33;99.70;99975.75;5068339;28;20046;-67
2020/12/09 05:02:08;;;;;;;21.40;12.98;;;;;;;2.16;99.82;99936.25;5068177;28;20032;-68
2020/12/09 05:04:34;;;;;;;21.77;13.32;;;;;;;2.37;99.84;99974.63;5068318;28;20529;-68
2020/12/09 05:07:10;;;;;;;19.30;13.00;;;;;;;2.29;99.37;99963.66;5067878;28;20021;-68
2020/12/09 05:09:46;;;;;;;20.75;12.85;;;;;;;2.05;99.68;99915.72;5068522;28;20028;-67
2020/12/09 05:12:17;;;;;;;23.13;14.32;;;;;;;2.33;99.95;99973.13;5066603;28;20097;-67
2020/12/09 05:14:47;;;;;;;21.38;12.60;;;;;;;2.32;99.72;99974.91;5068294;28;20032;-67
2020/12/09 05:17:19;;;;;;;21.83;13.43;;;;;;;2.09;100.00;99930.44;5047975;28;20060;-67
2020/12/09 05:19:46;;;;;;;21.13;13.98;;;;;;;2.10;99.68;99926.84;5068436;28;20437;-67
2020/12/09 05:22:17;;;;;;;19.00;12.35;;;;;;;2.30;100.00;99970.66;5050461;28;20683;-73
2020/12/09 05:24:44;;;;;;;19.45;12.57;;;;;;;2.30;100.00;99970.66;5069158;28;20047;-73
2020/12/09 05:27:11;;;;;;;24.45;13.75;;;;;;;2.29;99.84;99974.25;5067745;28;20094;-74
2020/12/09 05:29:44;;;;;;;21.23;13.50;;;;;;;2.21;100.00;99956.19;5068160;28;20028;-73
2020/12/09 05:32:10;;;;;;;24.67;14.05;;;;;;;2.27;100.00;99971.69;5071254;28;20021;-74
2020/12/09 05:34:35;;;;;;;25.10;13.35;;;;;;;2.29;99.92;99980.38;5054080;28;20032;-73
2020/12/09 05:37:05;;;;;;;21.73;12.85;;;;;;;2.33;99.91;99976.59;5071673;28;20040;-74
2020/12/09 05:39:31;;;;;;;23.45;14.15;;;;;;;2.19;100.00;99963.34;5071532;28;20048;-73
2020/12/09 05:41:57;;;;;;;20.20;12.88;;;;;;;2.33;99.89;99973.94;5070406;28;20043;-73
2020/12/09 05:44:24;;;;;;;20.70;12.73;;;;;;;2.32;99.50;99964.31;5072201;28;20107;-73
2020/12/09 05:46:56;;;;;;;22.65;13.57;;;;;;;2.34;99.74;99977.44;5054490;28;20020;-73
2020/12/09 05:49:23;;;;;;;20.38;13.50;;;;;;;2.35;99.63;99980.00;5072126;28;20024;-73
2020/12/09 05:52:11;;;;;;;18.77;12.73;;;;;;;2.37;99.48;99974.63;5071975;28;20074;-73
2020/12/09 05:54:43;;;;;;;20.42;12.73;;;;;;;2.39;99.76;99960.34;5065986;28;20040;-73
2020/12/09 05:57:10;;;;;;;19.60;12.57;;;;;;;2.39;99.16;99976.22;5068250;28;20111;-73
2020/12/09 05:59:39;;;;;;;20.80;13.40;;;;;;;2.32;99.54;99964.31;5070466;28;20414;-73
2020/12/09 06:02:07;;;;;;;21.58;13.55;;;;;;;2.39;99.06;99960.34;5051512;28;20024;-73
2020/12/09 06:05:02;;;;;;;22.40;13.35;;;;;;;2.39;99.04;99957.69;5069501;28;20094;-74
2020/12/09 06:07:30;;;;;;;19.23;12.85;;;;;;;2.34;99.30;99945.69;5060073;28;20078;-74
2020/12/09 06:10:08;;;;;;;22.83;14.18;;;;;;;2.41;99.15;99960.25;5070394;28;20056;-73
2020/12/09 06:12:48;;;;;;;20.77;13.35;;;;;;;2.30;99.16;99946.84;5070182;28;20520;-73
2020/12/09 06:15:18;;;;;;;24.83;14.90;;;;;;;2.29;99.13;99953.91;5068735;28;20040;-73
2020/12/09 06:17:44;;;;;;;23.65;14.98;;;;;;;2.38;99.07;99963.94;5051853;28;20021;-74
2020/12/09 06:20:10;;;;;;;22.80;13.77;;;;;;;2.42;99.22;99959.34;5069817;28;20126;-73
2020/12/09 06:22:35;;;;;;;22.85;13.90;;;;;;;2.41;99.17;99968.19;5052142;28;20028;-74
2020/12/09 06:25:06;;;;;;;23.27;13.90;;;;;;;2.25;99.10;99944.47;5070208;28;20443;-73
2020/12/09 06:27:37;;;;;;;19.92;13.55;;;;;;;2.32;99.13;99953.72;5049522;28;20119;-73
2020/12/09 06:30:06;;;;;;;22.73;14.82;;;;;;;2.38;99.39;99963.09;5067522;28;20111;-74
2020/12/09 06:32:49;;;;;;;24.30;13.52;;;;;;;2.42;99.27;99964.63;5060042;28;20044;-73
2020/12/09 06:35:19;;;;;;;21.90;13.25;;;;;;;2.42;98.93;99961.13;5064460;28;20343;-72
2020/12/09 06:38:09;;;;;;;22.58;13.77;;;;;;;2.43;99.27;99967.16;5068839;28;20067;-73
2020/12/09 06:41:05;;;;;;;21.88;14.23;;;;;;;2.47;98.92;99957.25;5066034;28;20032;-72
2020/12/09 06:43:31;;;;;;;26.00;14.43;;;;;;;2.31;98.82;99936.16;5062853;28;20068;-72
2020/12/09 06:45:57;;;;;;;23.80;14.55;;;;;;;2.33;99.05;99942.19;5068999;28;20023;-73
2020/12/09 06:48:24;;;;;;;21.35;14.68;;;;;;;2.48;98.91;99961.59;5068973;28;20028;-72
2020/12/09 06:50:50;;;;;;;26.45;14.35;;;;;;;2.53;98.75;99964.81;5069542;28;20037;-72
2020/12/09 06:53:22;;;;;;;26.90;14.48;;;;;;;2.54;98.75;99963.03;5068169;28;20020;-71
2020/12/09 06:55:50;;;;;;;25.73;15.32;;;;;;;2.38;99.16;99923.41;5068577;28;20036;-71
2020/12/09 06:58:29;;;;;;;24.10;14.85;;;;;;;2.55;98.80;99949.72;5067759;28;20027;-71
2020/12/09 07:01:09;;;;;;;22.10;14.82;;;;;;;2.38;99.13;99925.22;5068007;28;20040;-71
2020/12/09 07:03:37;;;;;;;25.05;15.40;;;;;;;2.59;98.97;99963.59;5049962;28;20043;-73
2020/12/09 07:06:21;;;;;;;25.25;14.88;;;;;;;2.63;99.10;99959.81;5068559;28;20041;-73
2020/12/09 07:08:48;;;;;;;26.08;15.85;;;;;;;2.63;98.96;99946.56;5068369;28;20017;-70
2020/12/09 07:11:14;;;;;;;22.15;14.90;;;;;;;2.70;98.90;99956.69;5049466;28;20029;-71
2020/12/09 07:13:39;;;;;;;26.35;14.30;;;;;;;2.62;98.76;99934.28;5068291;28;20506;-71
2020/12/09 07:16:05;;;;;;;23.92;14.63;;;;;;;2.83;98.62;99954.16;5067812;28;20043;-71
2020/12/09 07:18:33;;;;;;;24.67;14.80;;;;;;;2.72;98.21;99930.13;5065541;28;20029;-72
2020/12/09 07:20:59;;;;;;;21.73;13.98;;;;;;;2.87;98.23;99950.38;5068511;28;20074;-74
2020/12/09 07:23:24;;;;;;;26.42;14.88;;;;;;;2.69;98.28;99915.28;5068112;28;20103;-71
2020/12/09 07:25:54;;;;;;;25.08;15.00;;;;;;;2.96;97.82;99947.97;5067952;28;20040;-71
2020/12/09 07:28:19;;;;;;;24.10;14.57;;;;;;;2.98;97.71;99959.34;5065852;28;20032;-71
2020/12/09 07:30:45;;;;;;;23.80;14.98;;;;;;;2.98;97.95;99953.19;5067677;28;20729;-71
2020/12/09 07:33:15;;;;;;;24.55;14.20;;;;;;;3.03;97.80;99956.41;5067749;28;20382;-71
2020/12/09 07:35:42;;;;;;;24.65;14.48;;;;;;;3.06;97.41;99958.88;5067707;28;20041;-72
2020/12/09 07:38:08;;;;;;;24.75;14.27;;;;;;;3.04;97.67;99934.25;5067787;28;20078;-72
2020/12/09 07:40:34;;;;;;;22.48;13.70;;;;;;;3.15;97.11;99966.22;5067693;28;20087;-72
2020/12/09 07:43:06;;;;;;;26.52;15.18;;;;;;;3.11;96.86;99947.03;5068106;28;20034;-71
2020/12/09 07:45:33;;;;;;;27.98;14.52;;;;;;;3.14;96.72;99952.13;5066592;28;20051;-72
2020/12/09 07:48:10;;;;;;;27.90;16.08;;;;;;;3.21;96.75;99964.03;5068101;28;20111;-72
2020/12/09 07:50:37;;;;;;;26.13;15.77;;;;;;;3.24;96.52;99962.97;5066887;28;20044;-72
2020/12/09 07:53:04;;;;;;;25.10;15.65;;;;;;;3.21;96.46;99950.78;5067456;28;20024;-72
2020/12/09 07:55:33;;;;;;;24.67;15.27;;;;;;;3.30;96.59;99978.50;5066950;28;20044;-72
2020/12/09 07:58:09;;;;;;;21.52;15.27;;;;;;;3.34;96.16;99966.75;5067835;28;20040;-72
2020/12/09 08:00:37;;;;;;;22.40;14.98;;;;;;;3.26;96.23;99958.44;5067269;28;20478;-71
2020/12/09 08:03:04;;;;;;;26.33;15.30;;;;;;;3.38;95.98;99969.09;5066703;28;20016;-71
2020/12/09 08:05:38;;;;;;;24.38;15.48;;;;;;;3.40;96.43;99979.59;5065594;28;20521;-71
2020/12/09 08:08:12;;;;;;;23.90;14.93;;;;;;;3.12;96.02;99927.53;5067518;28;20024;-72
2020/12/09 08:10:38;;;;;;;25.75;15.38;;;;;;;3.33;96.29;99965.06;5049473;28;20045;-72
2020/12/09 08:13:21;;;;;;;22.92;15.65;;;;;;;3.46;96.05;99964.19;5069602;28;20073;-72
2020/12/09 08:15:59;;;;;;;26.88;14.48;;;;;;;3.47;96.84;99965.88;5068300;28;20021;-72
2020/12/09 08:18:25;;;;;;;24.42;15.48;;;;;;;3.46;96.74;99964.19;5049976;28;20024;-72
2020/12/09 08:20:52;;;;;;;26.58;16.27;;;;;;;3.36;97.00;99936.56;5066510;28;20028;-72
2020/12/09 08:23:17;;;;;;;23.45;14.90;;;;;;;3.54;96.66;99961.00;5068974;28;20043;-72
2020/12/09 08:25:48;;;;;;;22.63;14.93;;;;;;;3.56;96.76;99956.47;5069207;28;20397;-71
2020/12/09 08:28:18;;;;;;;25.92;15.50;;;;;;;3.62;96.81;99961.38;5065456;28;20814;-72
2020/12/09 08:30:44;;;;;;;24.40;14.93;;;;;;;3.68;97.05;99966.28;5068397;28;20436;-72
2020/12/09 08:33:12;;;;;;;25.77;16.02;;;;;;;3.76;96.64;99974.56;5068700;28;20032;-72
2020/12/09 08:35:59;;;;;;;25.80;15.73;;;;;;;3.84;96.22;99962.50;5066277;28;20110;-72
2020/12/09 08:38:32;;;;;;;26.35;14.90;;;;;;;3.85;95.95;99966.00;5068860;28;20028;-72
2020/12/09 08:40:59;;;;;;;25.20;14.77;;;;;;;3.85;95.21;99944.78;5067015;28;20041;-72
2020/12/09 08:43:27;;;;;;;24.38;15.02;;;;;;;3.95;95.12;99949.41;5066776;28;20035;-72
2020/12/09 08:45:53;;;;;;;22.00;14.50;;;;;;;4.04;94.77;99945.28;5050955;28;20016;-72
2020/12/09 08:48:19;;;;;;;24.92;15.35;;;;;;;4.03;94.41;99935.63;5068808;28;20363;-72
2020/12/09 08:50:49;;;;;;;20.48;13.48;;;;;;;4.30;94.56;99961.16;5068887;28;20028;-72
2020/12/09 08:53:15;;;;;;;22.50;14.60;;;;;;;4.38;93.97;99952.63;5068583;28;20531;-72
2020/12/09 08:55:42;;;;;;;22.58;13.98;;;;;;;4.45;93.36;99964.56;5069195;28;20025;-72
2020/12/09 08:58:09;;;;;;;25.42;15.48;;;;;;;4.44;92.60;99952.22;5068698;28;20041;-73
2020/12/09 09:00:37;;;;;;;26.17;14.65;;;;;;;4.41;92.79;99941.81;5068712;28;20035;-73
2020/12/09 09:03:03;;;;;;;25.45;15.27;;;;;;;4.57;92.58;99958.38;5068972;28;20024;-73
2020/12/09 09:05:29;;;;;;;22.45;14.65;;;;;;;4.60;92.66;99951.06;5070352;28;20363;-73
2020/12/09 09:07:54;;;;;;;22.20;14.23;;;;;;;4.74;92.79;99955.41;5072922;28;20023;-72
2020/12/09 09:10:19;;;;;;;20.33;12.50;;;;;;;4.67;91.65;99919.59;5072600;28;20472;-72
2020/12/09 09:12:45;;;;;;;20.77;13.15;;;;;;;4.86;90.48;99941.25;5072883;28;20474;-73
2020/12/09 09:15:10;;;;;;;21.42;13.40;;;;;;;4.91;90.07;99944.47;5072947;28;20025;-73
2020/12/09 09:17:36;;;;;;;19.35;12.93;;;;;;;5.06;89.19;99950.50;5072581;28;20032;-73
2020/12/09 09:20:06;;;;;;;22.30;13.38;;;;;;;5.14;89.38;99948.13;5072730;28;20025;-73
2020/12/09 09:22:31;;;;;;;23.60;13.95;;;;;;;5.20;89.37;99951.22;5072323;28;20564;-73
2020/12/09 09:24:57;;;;;;;20.17;13.38;;;;;;;5.25;89.68;99945.56;5073171;28;20111;-73
2020/12/09 09:27:23;;;;;;;21.40;13.80;;;;;;;5.24;88.79;99931.41;5072311;28;20028;-72
2020/12/09 09:29:49;;;;;;;24.30;14.70;;;;;;;5.12;88.87;99916.34;5072253;28;20059;-73
2020/12/09 09:32:14;;;;;;;21.33;13.35;;;;;;;4.95;88.85;99870.69;5072159;28;20036;-73
2020/12/09 09:34:40;;;;;;;23.88;15.15;;;;;;;5.47;89.28;99943.88;5072096;28;20020;-73
2020/12/09 09:37:09;;;;;;;20.48;13.70;;;;;;;5.32;89.18;99904.28;5071506;28;20032;-73
2020/12/09 09:39:36;;;;;;;20.75;13.43;;;;;;;5.36;88.66;99909.28;5053742;28;20024;-73
2020/12/09 09:42:02;;;;;;;20.63;13.93;;;;;;;5.40;88.31;99908.06;5071831;28;20036;-73
2020/12/09 09:44:28;;;;;;;21.23;14.30;;;;;;;5.56;88.44;99929.06;5072258;28;20107;-74
2020/12/09 09:46:58;;;;;;;22.55;14.73;;;;;;;5.50;88.20;99921.53;5071965;28;20434;-73
2020/12/09 09:49:24;;;;;;;23.83;14.77;;;;;;;5.42;88.88;99900.81;5069306;28;20017;-73
2020/12/09 09:51:52;;;;;;;21.35;13.90;;;;;;;5.67;88.95;99927.31;5071676;28;20382;-73
2020/12/09 09:54:18;;;;;;;30.63;18.17;;;;;;;5.62;88.47;99923.31;5071587;28;20538;-73
2020/12/09 09:56:43;;;;;;;26.20;16.10;;;;;;;5.39;87.99;99887.78;5071775;28;20048;-74
2020/12/09 09:59:09;;;;;;;31.13;17.10;;;;;;;5.56;88.08;99900.66;5071559;28;20020;-73
2020/12/09 10:01:34;;;;;;;28.65;16.50;;;;;;;5.76;87.38;99912.47;5053648;28;20174;-73
2020/12/09 10:04:00;;;;;;;26.75;16.13;;;;;;;5.59;87.71;99880.97;5069228;28;20028;-73
2020/12/09 10:06:25;;;;;;;22.42;13.73;;;;;;;5.72;87.60;99903.88;5071304;28;20516;-74
2020/12/09 10:08:51;;;;;;;19.65;13.05;;;;;;;5.87;87.52;99918.72;5071503;28;20135;-74
2020/12/09 10:11:17;;;;;;;17.73;12.02;;;;;;;5.92;87.57;99903.28;5071179;28;20032;-73
2020/12/09 10:13:43;;;;;;;22.02;13.50;;;;;;;5.98;87.24;99908.13;5071447;28;20726;-73
2020/12/09 10:16:08;;;;;;;22.13;13.20;;;;;;;6.06;86.58;99908.38;5071241;28;20035;-73
2020/12/09 10:18:34;;;;;;;17.45;12.63;;;;;;;6.14;86.59;99900.69;5052896;28;20272;-74
2020/12/09 10:20:59;;;;;;;21.42;14.00;;;;;;;6.11;85.67;99892.06;5071368;28;20110;-74
2020/12/09 10:23:25;;;;;;;19.80;13.65;;;;;;;6.20;85.89;99900.22;5071445;28;20693;-73
2020/12/09 10:25:50;;;;;;;25.02;14.57;;;;;;;6.24;85.82;99888.38;5071202;28;20039;-73
2020/12/09 10:28:16;;;;;;;20.85;13.55;;;;;;;6.26;85.08;99888.25;5071162;28;20371;-74
2020/12/09 10:30:45;;;;;;;21.48;13.30;;;;;;;6.25;84.80;99882.06;5071069;28;20059;-74
2020/12/09 10:33:12;;;;;;;21.30;13.35;;;;;;;6.22;84.86;99874.31;5070926;28;20029;-74
2020/12/09 10:35:38;;;;;;;17.40;12.60;;;;;;;6.37;84.27;99888.25;5070839;28;20119;-73
2020/12/09 10:38:05;;;;;;;19.42;13.13;;;;;;;6.36;84.57;99895.38;5070862;28;20112;-73
2020/12/09 10:40:31;;;;;;;18.75;11.55;;;;;;;6.28;84.41;99870.31;5070934;28;20020;-74
2020/12/09 10:42:56;;;;;;;22.15;12.85;;;;;;;6.29;84.12;99867.53;5070328;28;20074;-74
2020/12/09 10:45:22;;;;;;;20.67;13.10;;;;;;;6.20;83.92;99835.47;5062773;28;20467;-73
2020/12/09 10:47:47;;;;;;;17.02;11.98;;;;;;;6.35;84.09;99859.06;5064527;28;20027;-73
2020/12/09 10:50:13;;;;;;;18.33;12.32;;;;;;;6.55;83.31;99874.34;5069263;28;20032;-74
2020/12/09 10:52:38;;;;;;;19.25;12.07;;;;;;;6.54;83.09;99858.47;5067420;28;20052;-74
2020/12/09 10:55:04;;;;;;;16.80;11.40;;;;;;;6.45;82.61;99837.91;5047824;28;20031;-74
2020/12/09 10:57:29;;;;;;;17.17;11.73;;;;;;;6.54;82.50;99842.50;5059959;28;20537;-75
2020/12/09 10:59:55;;;;;;;17.23;11.70;;;;;;;6.57;82.50;99843.13;5068392;28;20470;-74
2020/12/09 11:02:20;;;;;;;19.77;12.07;;;;;;;6.67;82.64;99849.41;5048577;28;20024;-74
2020/12/09 11:04:46;;;;;;;19.42;12.05;;;;;;;6.37;83.46;99793.25;5067725;28;20047;-75
2020/12/09 11:07:11;;;;;;;17.65;11.38;;;;;;;6.79;83.28;99851.09;5067576;28;20538;-74
2020/12/09 11:09:40;;;;;;;17.95;12.35;;;;;;;6.82;82.28;99842.00;5067758;28;20528;-74
2020/12/09 11:12:06;;;;;;;18.98;11.98;;;;;;;6.82;82.62;99844.66;5061398;28;20081;-74
2020/12/09 11:14:35;;;;;;;17.92;10.88;;;;;;;6.80;82.66;99846.59;5061215;28;20039;-74
2020/12/09 11:17:04;;;;;;;18.60;12.02;;;;;;;6.75;82.77;99838.16;5066269;28;20033;-74
2020/12/09 11:19:31;;;;;;;21.67;12.23;;;;;;;6.62;82.63;99811.59;5060961;28;20048;-74
2020/12/09 11:21:57;;;;;;;17.42;11.20;;;;;;;6.77;83.00;99836.19;5068172;28;20314;-74
2020/12/09 11:24:22;;;;;;;18.80;11.95;;;;;;;6.90;83.19;99842.22;5064728;28;20521;-73